createdAt,value
2022-11-02T00:01:45.157Z,9.70
2022-11-02T00:06:02.439Z,9.70
2022-11-02T00:10:20.342Z,9.80
2022-11-02T00:14:37.601Z,9.90
2022-11-02T00:18:57.387Z,9.90
2022-11-02T00:23:15.677Z,9.90
2022-11-02T00:27:35.232Z,9.90
2022-11-02T00:31:52.406Z,10.00
2022-11-02T00:36:09.831Z,9.90
2022-11-02T00:40:27.154Z,9.50
2022-11-02T00:44:44.372Z,9.00
2022-11-02T00:49:01.651Z,8.60
2022-11-02T00:53:18.822Z,8.20
2022-11-02T00:57:37.331Z,8.00
2022-11-02T01:01:54.741Z,7.90
2022-11-02T01:06:14.709Z,7.80
2022-11-02T01:10:32.037Z,7.70
2022-11-02T01:14:50.099Z,7.50
2022-11-02T01:19:07.737Z,7.40
2022-11-02T01:23:25.641Z,7.20
2022-11-02T01:27:42.850Z,7.10
2022-11-02T01:32:00.121Z,7.00
2022-11-02T01:40:40.385Z,6.60
2022-11-02T01:44:57.557Z,6.50
2022-11-02T01:49:17.890Z,6.40
2022-11-02T01:53:37.707Z,6.40
2022-11-02T01:58:01.971Z,6.40
2022-11-02T02:02:22.888Z,6.40
2022-11-02T02:06:40.989Z,6.30
2022-11-02T02:10:59.334Z,6.20
2022-11-02T02:15:16.886Z,6.10
2022-11-02T02:19:55.733Z,6.00
2022-11-02T02:24:37.669Z,6.00
2022-11-02T02:29:03.160Z,6.30
2022-11-02T02:33:49.825Z,6.40
2022-11-02T02:38:14.126Z,6.20
2022-11-02T02:42:41.005Z,6.40
2022-11-02T02:47:01.968Z,6.50
2022-11-02T02:51:31.150Z,6.60
2022-11-02T02:55:49.716Z,6.70
2022-11-02T03:00:17.548Z,7.60
2022-11-02T03:04:34.872Z,8.50
2022-11-02T03:09:17.221Z,8.90
2022-11-02T03:13:59.297Z,9.20
2022-11-02T03:18:38.660Z,9.20
2022-11-02T03:23:22.144Z,9.20
2022-11-02T03:28:02.292Z,9.30
2022-11-02T03:32:28.508Z,9.20
2022-11-02T03:41:33.060Z,9.20
2022-11-02T03:45:55.963Z,9.30
2022-11-02T03:50:16.803Z,9.40
2022-11-02T03:55:05.114Z,9.30
2022-11-02T03:59:22.462Z,9.40
2022-11-02T04:03:45.014Z,9.50
2022-11-02T04:08:20.974Z,9.50
2022-11-02T04:12:57.021Z,9.60
2022-11-02T04:17:36.135Z,9.70
2022-11-02T04:22:12.659Z,9.70
2022-11-02T04:26:30.053Z,9.70
2022-11-02T04:30:47.703Z,9.70
2022-11-02T04:35:05.863Z,9.50
2022-11-02T04:39:23.173Z,9.60
2022-11-02T04:43:40.510Z,9.50
2022-11-02T04:48:02.695Z,9.40
2022-11-02T04:52:20.306Z,9.30
2022-11-02T04:56:37.615Z,9.30
2022-11-02T05:00:54.953Z,9.20
2022-11-02T05:05:12.588Z,9.20
2022-11-02T05:09:29.870Z,9.20
2022-11-02T05:13:47.899Z,9.30
2022-11-02T05:18:05.745Z,9.30
2022-11-02T05:22:23.356Z,9.20
2022-11-02T05:26:40.682Z,9.30
2022-11-02T05:31:02.003Z,9.30
2022-11-02T05:35:19.463Z,9.30
2022-11-02T05:39:37.320Z,9.30
2022-11-02T05:43:54.618Z,9.20
2022-11-02T05:48:11.970Z,9.20
2022-11-02T05:52:29.313Z,9.30
2022-11-02T05:56:46.783Z,9.40
2022-11-02T06:01:06.741Z,9.40
2022-11-02T06:05:27.031Z,9.40
2022-11-02T06:09:44.894Z,9.40
2022-11-02T06:14:03.828Z,9.40
2022-11-02T06:18:21.133Z,9.50
2022-11-02T06:22:41.993Z,9.40
2022-11-02T06:26:59.378Z,9.30
2022-11-02T06:31:19.866Z,9.00
2022-11-02T06:35:37.152Z,8.70
2022-11-02T06:39:54.465Z,8.40
2022-11-02T06:44:11.936Z,8.20
2022-11-02T06:48:34.589Z,8.60
2022-11-02T06:52:52.724Z,9.00
2022-11-02T06:57:10.126Z,9.20
2022-11-02T07:01:27.596Z,9.30
2022-11-02T07:05:53.074Z,9.30
2022-11-02T07:10:10.766Z,9.50
2022-11-02T07:14:28.094Z,9.70
2022-11-02T07:18:45.484Z,9.70
2022-11-02T07:23:05.344Z,10.00
2022-11-02T07:27:23.207Z,10.20
2022-11-02T07:31:40.484Z,10.30
2022-11-02T07:35:57.965Z,10.40
2022-11-02T07:40:15.345Z,10.60
2022-11-02T07:44:32.658Z,10.80
2022-11-02T07:48:49.936Z,11.10
2022-11-02T07:53:07.521Z,11.20
2022-11-02T07:57:25.139Z,11.40
2022-11-02T08:01:42.488Z,11.60
2022-11-02T08:06:02.995Z,11.80
2022-11-02T08:10:20.469Z,12.30
2022-11-02T08:14:37.746Z,12.40
2022-11-02T08:18:55.281Z,12.20
2022-11-02T08:23:13.502Z,11.90
2022-11-02T08:27:30.876Z,12.30
2022-11-02T08:31:48.382Z,12.50
2022-11-02T08:36:05.954Z,12.40
2022-11-02T08:40:23.771Z,12.40
2022-11-02T08:44:42.632Z,12.40
2022-11-02T08:49:00.418Z,12.50
2022-11-02T08:53:18.365Z,12.50
2022-11-02T08:57:52.749Z,12.60
2022-11-02T09:02:10.755Z,12.70
2022-11-02T09:06:28.155Z,12.60
2022-11-02T09:10:49.355Z,12.60
2022-11-02T09:15:07.120Z,12.80
2022-11-02T09:19:24.604Z,13.10
2022-11-02T09:23:42.000Z,13.10
2022-11-02T09:28:00.099Z,13.30
2022-11-02T09:32:17.607Z,13.40
2022-11-02T09:36:35.151Z,13.70
2022-11-02T09:40:55.241Z,13.80
2022-11-02T09:45:16.432Z,14.10
2022-11-02T09:49:33.791Z,14.20
2022-11-02T09:54:20.288Z,14.00
2022-11-02T09:58:40.000Z,14.30
2022-11-02T10:03:09.798Z,14.50
2022-11-02T10:08:10.398Z,14.40
2022-11-02T10:12:27.667Z,14.60
2022-11-02T10:16:53.194Z,14.20
2022-11-02T10:21:16.321Z,14.50
2022-11-02T10:25:35.992Z,14.40
2022-11-02T10:30:01.441Z,13.70
2022-11-02T10:34:27.966Z,14.90
2022-11-02T10:38:55.945Z,15.40
2022-11-02T10:43:35.042Z,15.50
2022-11-02T10:48:03.975Z,16.00
2022-11-02T10:52:23.182Z,15.70
2022-11-02T10:56:43.256Z,16.10
2022-11-02T11:01:09.206Z,15.30
2022-11-02T11:05:26.779Z,15.20
2022-11-02T11:09:55.846Z,15.60
2022-11-02T11:23:35.126Z,15.70
2022-11-02T11:27:54.687Z,15.10
2022-11-02T11:32:24.609Z,15.20
2022-11-02T11:36:47.518Z,15.90
2022-11-02T11:41:05.427Z,16.00
2022-11-02T11:45:33.270Z,16.50
2022-11-02T11:54:29.647Z,16.20
2022-11-02T11:58:51.700Z,16.90
2022-11-02T12:03:11.256Z,16.20
2022-11-02T12:07:35.191Z,16.70
2022-11-02T12:12:17.559Z,15.10
2022-11-02T12:16:52.947Z,14.80
2022-11-02T12:21:32.093Z,15.30
2022-11-02T12:26:23.550Z,15.90
2022-11-02T12:30:55.856Z,15.40
2022-11-02T12:35:40.780Z,15.00
2022-11-02T12:40:11.107Z,14.80
2022-11-02T12:44:47.652Z,14.90
2022-11-02T12:49:37.626Z,14.70
2022-11-02T12:53:57.704Z,14.50
2022-11-02T12:58:24.972Z,14.40
2022-11-02T13:02:51.622Z,14.30
2022-11-02T13:07:15.472Z,14.30
2022-11-02T13:11:39.766Z,14.30
2022-11-02T13:15:59.751Z,14.40
2022-11-02T13:20:28.571Z,14.70
2022-11-02T13:24:52.166Z,15.00
2022-11-02T13:29:45.236Z,14.90
2022-11-02T13:34:15.738Z,14.70
2022-11-02T13:38:39.604Z,14.90
2022-11-02T13:43:00.911Z,15.00
2022-11-02T13:47:50.192Z,14.70
2022-11-02T13:52:22.075Z,14.50
2022-11-02T13:56:39.828Z,14.70
2022-11-02T14:01:04.103Z,14.90
2022-11-02T14:05:44.930Z,14.70
2022-11-02T14:10:08.949Z,14.50
2022-11-02T14:14:26.415Z,14.50
2022-11-02T14:18:43.725Z,14.30
2022-11-02T14:23:10.245Z,14.40
2022-11-02T14:27:29.566Z,14.30
2022-11-02T14:31:56.437Z,14.20
2022-11-02T14:36:16.524Z,14.10
2022-11-02T14:41:04.098Z,14.10
2022-11-02T14:45:22.025Z,13.90
2022-11-02T14:50:10.964Z,13.80
2022-11-02T14:54:31.847Z,13.60
2022-11-02T14:58:57.118Z,13.50
2022-11-02T15:03:29.244Z,13.40
2022-11-02T15:07:54.783Z,13.40
2022-11-02T15:12:26.988Z,13.30
2022-11-02T15:16:45.497Z,13.20
2022-11-02T15:21:12.338Z,13.10
2022-11-02T15:25:39.518Z,13.10
2022-11-02T15:29:58.922Z,13.00
2022-11-02T15:34:20.593Z,12.40
2022-11-02T15:38:40.264Z,11.90
2022-11-02T15:43:33.120Z,11.40
2022-11-02T15:47:53.421Z,10.90
2022-11-02T15:53:09.077Z,10.40
2022-11-02T15:57:39.651Z,10.00
2022-11-02T16:02:29.932Z,9.80
2022-11-02T16:06:49.621Z,9.50
2022-11-02T16:11:17.654Z,9.20
2022-11-02T16:15:38.717Z,9.00
2022-11-02T16:20:21.864Z,8.90
2022-11-02T16:24:46.448Z,8.90
2022-11-02T16:29:08.519Z,8.80
2022-11-02T16:33:47.104Z,8.80
2022-11-02T16:38:04.834Z,8.70
2022-11-02T16:42:24.040Z,8.70
2022-11-02T16:46:48.271Z,8.50
2022-11-02T16:51:14.331Z,8.40
2022-11-02T16:55:39.444Z,8.30
2022-11-02T16:59:56.732Z,8.30
2022-11-02T17:04:25.658Z,8.20
2022-11-02T17:08:44.196Z,8.40
2022-11-02T17:13:03.025Z,9.10
2022-11-02T17:17:23.413Z,9.60
2022-11-02T17:21:44.347Z,9.50
2022-11-02T17:26:29.663Z,9.50
2022-11-02T17:30:48.205Z,9.00
2022-11-02T17:35:07.320Z,9.00
2022-11-02T17:39:27.177Z,9.00
2022-11-02T17:43:44.405Z,8.60
2022-11-02T17:48:05.215Z,8.50
2022-11-02T17:52:22.924Z,8.20
2022-11-02T17:56:40.766Z,8.00
2022-11-02T18:00:58.128Z,7.90
2022-11-02T18:05:26.421Z,8.30
2022-11-02T18:09:43.806Z,8.40
2022-11-02T18:14:01.110Z,8.70
2022-11-02T18:18:18.538Z,8.90
2022-11-02T18:22:35.847Z,9.00
2022-11-02T18:26:54.549Z,8.90
2022-11-02T18:31:11.971Z,8.90
2022-11-02T18:35:29.291Z,8.90
2022-11-02T18:39:46.688Z,8.90
2022-11-02T18:44:13.580Z,8.80
2022-11-02T18:48:32.632Z,8.80
2022-11-02T18:52:51.002Z,8.40
2022-11-02T18:57:10.867Z,7.90
2022-11-02T19:01:28.394Z,7.50
2022-11-02T19:06:04.354Z,7.20
2022-11-02T19:10:21.821Z,6.80
2022-11-02T19:14:42.379Z,6.60
2022-11-02T19:18:59.866Z,6.40
2022-11-02T19:23:17.194Z,6.30
2022-11-02T19:27:34.543Z,6.20
2022-11-02T19:31:51.883Z,6.10
2022-11-02T19:36:09.451Z,6.00
2022-11-02T19:40:26.688Z,5.90
2022-11-02T19:44:44.046Z,5.70
2022-11-02T19:49:01.412Z,5.80
2022-11-02T19:53:19.031Z,5.80
2022-11-02T19:57:36.566Z,5.80
2022-11-02T20:01:54.035Z,5.80
2022-11-02T20:06:17.688Z,5.70
2022-11-02T20:10:35.114Z,5.60
2022-11-02T20:14:52.533Z,5.40
2022-11-02T20:19:10.955Z,5.40
2022-11-02T20:23:28.337Z,5.40
2022-11-02T20:27:45.789Z,5.20
2022-11-02T20:32:04.436Z,5.20
2022-11-02T20:36:21.700Z,5.10
2022-11-02T20:40:41.369Z,5.10
2022-11-02T20:44:58.788Z,5.20
2022-11-02T20:49:48.767Z,5.20
2022-11-02T20:53:53.273Z,5.30
2022-11-02T20:58:10.666Z,5.20
2022-11-02T21:02:28.104Z,5.10
2022-11-02T21:06:45.509Z,5.10
2022-11-02T21:11:04.272Z,5.00
2022-11-02T21:15:21.653Z,5.00
2022-11-02T21:19:38.911Z,5.00
2022-11-02T21:23:56.609Z,4.90
2022-11-02T21:28:14.160Z,4.80
2022-11-02T21:32:31.436Z,4.80
2022-11-02T21:36:49.001Z,4.70
2022-11-02T21:41:08.167Z,4.60
2022-11-02T21:45:26.414Z,4.60
2022-11-02T21:49:44.132Z,4.60
2022-11-02T21:54:01.420Z,4.50
2022-11-02T21:58:19.470Z,4.50
2022-11-02T22:02:36.772Z,4.50
2022-11-02T22:07:01.103Z,4.40
2022-11-02T22:11:27.135Z,4.30
2022-11-02T22:15:44.369Z,4.10
2022-11-02T22:20:01.776Z,4.10
2022-11-02T22:24:19.776Z,4.10
2022-11-02T22:28:40.311Z,4.00
2022-11-02T22:32:58.117Z,3.90
2022-11-02T22:37:34.154Z,3.90
2022-11-02T22:41:51.494Z,4.00
2022-11-02T22:46:09.613Z,3.90
2022-11-02T22:50:27.918Z,3.90
2022-11-02T22:54:45.320Z,3.80
2022-11-02T22:59:04.187Z,3.80
2022-11-02T23:03:21.658Z,3.70
2022-11-02T23:07:38.973Z,3.60
2022-11-02T23:11:56.182Z,3.60
2022-11-02T23:16:24.138Z,3.50
2022-11-02T23:20:41.541Z,3.50
2022-11-02T23:25:17.978Z,3.40
2022-11-02T23:29:54.092Z,3.40
2022-11-02T23:34:11.360Z,3.30
2022-11-02T23:38:47.528Z,3.30
2022-11-02T23:43:06.329Z,3.30
2022-11-02T23:47:43.834Z,3.20
2022-11-02T23:52:19.829Z,3.20
2022-11-02T23:56:43.259Z,3.10
